createdAt,value
2018-07-21T00:00:34.780Z,73.54
2018-07-21T00:01:44.899Z,73.44
2018-07-21T00:02:54.722Z,73.54
2018-07-21T00:04:04.814Z,73.54
2018-07-21T00:05:14.370Z,73.35
2018-07-21T00:06:24.192Z,73.44
2018-07-21T00:07:33.819Z,73.54
2018-07-21T00:08:43.620Z,73.35
2018-07-21T00:09:53.695Z,73.15
2018-07-21T00:11:03.753Z,73.44
2018-07-21T00:12:13.826Z,73.54
2018-07-21T00:13:23.643Z,73.54
2018-07-21T00:14:33.729Z,73.25
2018-07-21T00:15:43.545Z,73.44
2018-07-21T00:16:53.629Z,73.35
2018-07-21T00:18:03.711Z,73.35
2018-07-21T00:19:13.794Z,73.54
2018-07-21T00:20:23.876Z,73.54
2018-07-21T00:21:33.962Z,73.41
2018-07-21T00:22:43.779Z,73.25
2018-07-21T00:23:53.607Z,73.41
2018-07-21T00:25:03.751Z,73.41
2018-07-21T00:26:13.814Z,73.5
2018-07-21T00:27:23.629Z,73.41
2018-07-21T00:28:33.694Z,73.41
2018-07-21T00:29:43.774Z,73.31
2018-07-21T00:30:53.594Z,73.44
2018-07-21T00:32:03.399Z,73.31
2018-07-21T00:33:13.246Z,73.21
2018-07-21T00:34:23.353Z,73.5
2018-07-21T00:35:33.432Z,73.31
2018-07-21T00:36:43.514Z,73.41
2018-07-21T00:37:53.336Z,73.21
2018-07-21T00:39:03.423Z,73.41
2018-07-21T00:40:13.514Z,73.31
2018-07-21T00:41:23.578Z,73.31
2018-07-21T00:42:33.645Z,73.21
2018-07-21T00:43:43.742Z,73.31
2018-07-21T00:44:53.825Z,73.41
2018-07-21T00:46:03.920Z,73.21
2018-07-21T00:47:14.006Z,73.5
2018-07-21T00:48:24.141Z,73.21
2018-07-21T00:49:34.220Z,73.21
2018-07-21T00:50:44.300Z,73.41
2018-07-21T00:51:54.403Z,73.21
2018-07-21T00:53:04.489Z,73.31
2018-07-21T00:54:14.628Z,73.5
2018-07-21T00:55:24.437Z,73.27
2018-07-21T00:56:34.012Z,73.27
2018-07-21T00:57:43.827Z,73.37
2018-07-21T00:58:53.898Z,73.18
2018-07-21T01:00:03.706Z,73.18
2018-07-21T01:01:13.807Z,73.47
2018-07-21T01:02:23.622Z,73.08
2018-07-21T01:03:33.703Z,73.37
2018-07-21T01:04:43.774Z,73.37
2018-07-21T01:05:53.583Z,73.47
2018-07-21T01:07:03.651Z,73.37
2018-07-21T01:08:13.730Z,73.37
2018-07-21T01:09:23.571Z,73.18
2018-07-21T01:10:33.644Z,73.27
2018-07-21T01:11:43.238Z,73.18
2018-07-21T01:12:53.328Z,73.18
2018-07-21T01:14:03.416Z,73.47
2018-07-21T01:15:13.687Z,73.18
2018-07-21T01:16:23.765Z,73.27
2018-07-21T01:17:33.838Z,73.37
2018-07-21T01:18:43.919Z,73.18
2018-07-21T01:19:53.998Z,73.37
2018-07-21T01:21:04.085Z,73.27
2018-07-21T01:22:13.893Z,73.37
2018-07-21T01:23:23.992Z,73.37
2018-07-21T01:24:34.053Z,73.33
2018-07-21T01:25:44.123Z,73.37
2018-07-21T01:26:53.945Z,73.33
2018-07-21T01:28:03.757Z,73.37
2018-07-21T01:29:13.873Z,73.43
2018-07-21T01:30:23.943Z,73.27
2018-07-21T01:31:34.053Z,73.27
2018-07-21T01:32:44.120Z,73.24
2018-07-21T01:33:54.197Z,73.05
2018-07-21T01:35:03.996Z,73.18
2018-07-21T01:36:14.066Z,73.08
2018-07-21T01:37:23.889Z,73.27
2018-07-21T01:38:33.964Z,73.27
2018-07-21T01:39:44.019Z,73.27
2018-07-21T01:40:53.831Z,73.18
2018-07-21T01:42:03.909Z,73.27
2018-07-21T01:43:13.984Z,73.18
2018-07-21T01:44:24.065Z,73.27
2018-07-21T01:45:33.869Z,73.18
2018-07-21T01:46:43.956Z,73.27
2018-07-21T01:47:53.775Z,74.1
2018-07-21T01:49:03.318Z,73.05
2018-07-21T01:50:13.399Z,73.05
2018-07-21T01:51:23.461Z,73.72
2018-07-21T01:52:33.058Z,74.01
2018-07-21T01:53:43.133Z,73.62
2018-07-21T01:54:53.211Z,74.01
2018-07-21T01:56:03.037Z,73.91
2018-07-21T01:57:12.860Z,72.85
2018-07-21T01:58:22.668Z,73.72
2018-07-21T01:59:32.752Z,72.95
2018-07-21T02:00:42.832Z,73.53
2018-07-21T02:01:52.911Z,73.14
2018-07-21T02:03:02.997Z,73.05
2018-07-21T02:04:13.084Z,73.62
2018-07-21T02:05:23.617Z,73.62
2018-07-21T02:06:33.689Z,73.72
2018-07-21T02:07:43.773Z,74.01
2018-07-21T02:08:53.867Z,74.01
2018-07-21T02:10:03.679Z,73.72
2018-07-21T02:11:12.977Z,73.14
2018-07-21T02:12:23.038Z,73.91
2018-07-21T02:13:33.201Z,74.01
2018-07-21T02:14:43.006Z,73.72
2018-07-21T02:15:52.621Z,73.97
2018-07-21T02:17:02.679Z,73.88
2018-07-21T02:18:12.765Z,73.97
2018-07-21T02:19:22.572Z,73.91
2018-07-21T02:20:32.391Z,73.82
2018-07-21T02:21:42.207Z,73.68
2018-07-21T02:22:52.234Z,73.01
2018-07-21T02:24:02.339Z,73.62
2018-07-21T02:25:12.143Z,73.01
2018-07-21T02:26:22.224Z,73.1
2018-07-21T02:27:32.101Z,73.1
2018-07-21T02:28:42.156Z,73.1
2018-07-21T02:29:52.234Z,73.78
2018-07-21T02:31:02.297Z,73.2
2018-07-21T02:32:11.942Z,73.01
2018-07-21T02:33:22.018Z,73.1
2018-07-21T02:34:32.105Z,72.91
2018-07-21T02:35:42.192Z,73.68
2018-07-21T02:36:52.286Z,73.2
2018-07-21T02:38:02.400Z,73.97
2018-07-21T02:39:12.534Z,73.78
2018-07-21T02:40:22.108Z,73.78
2018-07-21T02:41:31.923Z,73.01
2018-07-21T02:42:42.004Z,73.01
2018-07-21T02:43:52.102Z,73.68
2018-07-21T02:45:02.239Z,73.1
2018-07-21T02:46:12.064Z,73.68
2018-07-21T02:47:21.876Z,73.1
2018-07-21T02:48:31.940Z,73.68
2018-07-21T02:49:42.028Z,73.68
2018-07-21T02:50:52.189Z,73.58
2018-07-21T02:52:02.012Z,72.91
2018-07-21T02:53:11.841Z,73.68
2018-07-21T02:54:21.719Z,73.1
2018-07-21T02:55:31.854Z,73.2
2018-07-21T02:56:41.939Z,73.2
2018-07-21T02:57:51.751Z,73.2
2018-07-21T02:59:01.827Z,73.2
2018-07-21T03:00:11.930Z,73.2
2018-07-21T03:01:22.044Z,73.2
2018-07-21T03:02:31.922Z,73.2
2018-07-21T03:34:50.905Z,68.02
2018-07-21T03:36:00.985Z,68.25
2018-07-21T03:37:10.778Z,68.6
2018-07-21T03:38:20.838Z,69.27
2018-07-21T03:39:30.641Z,69.89
2018-07-21T03:40:40.508Z,69.98
2018-07-21T03:41:50.328Z,71.04
2018-07-21T03:43:00.400Z,71.52
2018-07-21T03:44:10.465Z,71.52
2018-07-21T03:45:20.273Z,71.75
2018-07-21T03:46:30.086Z,71.94
2018-07-21T03:47:40.172Z,71.75
2018-07-21T03:48:49.986Z,71.97
2018-07-21T03:49:59.795Z,72.65
2018-07-21T03:51:09.354Z,72.17
2018-07-21T03:52:19.150Z,72.26
2018-07-21T03:53:29.231Z,72.65
2018-07-21T03:54:39.053Z,72.39
2018-07-21T03:55:48.877Z,72.68
2018-07-21T03:56:58.948Z,72.72
2018-07-21T03:58:09.027Z,72.72
2018-07-21T03:59:19.120Z,72.72
2018-07-21T04:00:29.075Z,72.47
2018-07-21T04:01:39.310Z,72.18
2018-07-21T04:02:49.387Z,72.08
2018-07-21T04:03:59.466Z,72.37
2018-07-21T04:05:09.292Z,72.47
2018-07-21T04:06:19.263Z,72.27
2018-07-21T04:07:29.119Z,72.69
2018-07-21T04:08:38.931Z,72.89
2018-07-21T04:09:48.747Z,72.79
2018-07-21T04:10:59.069Z,72.21
2018-07-21T04:12:08.913Z,72.15
2018-07-21T04:13:18.788Z,72.06
2018-07-21T04:14:28.330Z,72.34
2018-07-21T04:15:38.393Z,71.67
2018-07-21T04:16:48.466Z,72.06
2018-07-21T04:17:58.280Z,72.19
2018-07-21T04:19:08.343Z,72.38
2018-07-21T04:20:18.147Z,72.09
2018-07-21T04:21:29.019Z,71.9
2018-07-21T04:22:38.875Z,71.9
2018-07-21T04:23:48.682Z,72.19
2018-07-21T04:24:58.526Z,72.03
2018-07-21T04:26:08.619Z,72.13
2018-07-21T04:27:18.760Z,71.55
2018-07-21T04:28:28.849Z,71.74
2018-07-21T04:29:38.919Z,71.06
2018-07-21T04:30:48.976Z,69.68
2018-07-21T04:31:59.073Z,67.85
2018-07-21T04:33:09.957Z,67.47
2018-07-21T04:34:20.040Z,66.08
2018-07-21T04:35:30.106Z,66.05
2018-07-21T04:36:40.189Z,65.23
2018-07-21T04:37:49.996Z,65.37
2018-07-21T04:38:59.855Z,64.91
2018-07-21T04:40:09.968Z,64.94
2018-07-21T04:41:20.043Z,65.17
2018-07-21T04:42:30.128Z,65.01
2018-07-21T04:43:40.205Z,64.94
2018-07-21T04:44:50.366Z,64.87
2018-07-21T04:46:00.448Z,64.42
2018-07-21T04:47:10.516Z,64.36
2018-07-21T04:48:20.322Z,64.94
2018-07-21T04:49:30.418Z,65.72
2018-07-21T04:50:40.545Z,66.86
2018-07-21T04:51:50.633Z,66.27
2018-07-21T04:53:00.725Z,66.41
2018-07-21T04:54:10.820Z,66.96
2018-07-21T04:55:20.917Z,66.86
2018-07-21T04:56:31.049Z,66.41
2018-07-21T04:57:40.875Z,65.72
2018-07-21T04:58:51.017Z,65.95
2018-07-21T05:00:01.108Z,66.05
2018-07-21T05:01:11.265Z,66.08
2018-07-21T05:02:21.364Z,65.49
2018-07-21T05:03:31.431Z,65.23
2018-07-21T05:04:41.257Z,64.97
2018-07-21T05:05:51.344Z,64.87
2018-07-21T05:07:01.411Z,64.8
2018-07-21T05:08:10.975Z,65.3
2018-07-21T05:09:21.323Z,65.03
2018-07-21T05:10:31.398Z,65.03
2018-07-21T05:11:41.480Z,65.23
2018-07-21T05:12:51.289Z,64.64
2018-07-21T05:14:01.120Z,64.44
2018-07-21T05:15:11.198Z,64.77
2018-07-21T05:16:21.253Z,64.47
2018-07-21T05:17:30.792Z,64.51
2018-07-21T05:18:40.878Z,64.41
2018-07-21T05:19:50.967Z,64.93
2018-07-21T05:21:01.102Z,66.17
2018-07-21T05:22:11.201Z,67.54
2018-07-21T05:23:21.319Z,68.88
2018-07-21T05:24:31.152Z,69.59
2018-07-21T05:25:41.282Z,70.5
2018-07-21T05:26:51.377Z,71.15
2018-07-21T05:28:01.191Z,69.26
2018-07-21T05:29:11.032Z,68.49
2018-07-21T05:30:20.862Z,67.87
2018-07-21T05:31:30.942Z,67.29
2018-07-21T05:32:41.034Z,66.93
2018-07-21T05:33:51.115Z,66.34
2018-07-21T05:35:01.212Z,66.2
2018-07-21T05:36:11.139Z,65.75
2018-07-21T05:37:21.208Z,66.24
2018-07-21T05:38:31.026Z,66.44
2018-07-21T05:39:40.846Z,66.11
2018-07-21T05:40:50.930Z,66.05
2018-07-21T05:42:01.004Z,65.78
2018-07-21T05:43:10.869Z,65.16
2018-07-21T05:44:20.947Z,64.51
2018-07-21T05:45:30.781Z,63.98
2018-07-21T05:46:40.615Z,63.52
2018-07-21T05:47:50.698Z,63.75
2018-07-21T05:49:00.862Z,63.84
2018-07-21T05:50:10.958Z,63.48
2018-07-21T05:51:21.062Z,63.51
2018-07-21T05:52:31.160Z,63.64
2018-07-21T05:53:41.266Z,63.54
2018-07-21T05:54:51.403Z,63.18
2018-07-21T05:56:01.493Z,63.28
2018-07-21T05:57:11.577Z,64.04
2018-07-21T05:58:21.643Z,64.79
2018-07-21T05:59:31.200Z,65.12
2018-07-21T06:00:41.290Z,65.61
2018-07-21T06:01:51.380Z,66.2
2018-07-21T06:03:01.585Z,66.17
2018-07-21T06:04:11.431Z,65.94
2018-07-21T06:05:21.512Z,65.94
2018-07-21T06:06:31.639Z,66.04
2018-07-21T06:07:41.720Z,66.04
2018-07-21T06:08:51.536Z,66.83
2018-07-21T06:10:01.640Z,66.99
2018-07-21T06:11:11.855Z,66.79
2018-07-21T06:12:21.747Z,67.05
2018-07-21T06:13:31.846Z,68
2018-07-21T06:14:41.674Z,67.71
2018-07-21T06:15:51.222Z,67.48
2018-07-21T06:17:01.197Z,67.32
2018-07-21T06:18:11.706Z,67.02
2018-07-21T06:19:21.794Z,67.51
2018-07-21T06:20:31.873Z,68.2
2018-07-21T06:21:41.687Z,69.01
2018-07-21T06:22:51.777Z,69.37
2018-07-21T06:24:01.865Z,69.24
2018-07-21T06:25:12.115Z,69.73
2018-07-21T06:26:22.592Z,69.6
2018-07-21T06:27:32.423Z,68.91
2018-07-21T06:28:42.246Z,69.24
2018-07-21T06:29:52.074Z,69.24
2018-07-21T06:31:02.160Z,69.14
2018-07-21T06:32:11.982Z,69.01
2018-07-21T06:33:21.789Z,68.91
2018-07-21T06:34:31.879Z,69.21
2018-07-21T06:35:42.118Z,68.91
2018-07-21T06:36:52.207Z,68.36
2018-07-21T06:38:02.308Z,68.68
2018-07-21T06:39:12.126Z,68.78
2018-07-21T06:40:22.227Z,68.49
2018-07-21T06:41:32.339Z,68.19
2018-07-21T06:42:41.887Z,68.33
2018-07-21T06:43:52.050Z,68.13
2018-07-21T06:45:01.710Z,68.33
2018-07-21T06:46:11.531Z,68.49
2018-07-21T06:47:21.349Z,68.49
2018-07-21T06:48:31.151Z,68.68
2018-07-21T06:49:41.446Z,68.52
2018-07-21T06:50:51.602Z,67.84
2018-07-21T06:52:01.701Z,68.04
2018-07-21T06:53:11.838Z,68.04
2018-07-21T06:54:21.686Z,68.13
2018-07-21T06:55:31.382Z,68.52
2018-07-21T06:56:41.469Z,68.23
2018-07-21T06:57:51.563Z,68.72
2018-07-21T06:59:01.263Z,68.72
2018-07-21T07:00:11.463Z,68.33
2018-07-21T07:01:21.550Z,68.82
2018-07-21T07:02:31.627Z,68.72
2018-07-21T07:03:41.694Z,68.62
2018-07-21T07:04:51.590Z,69.18
2018-07-21T07:06:01.680Z,69.08
2018-07-21T07:07:11.503Z,68.68
2018-07-21T07:08:21.585Z,68.78
2018-07-21T07:09:31.660Z,68.39
2018-07-21T07:10:41.842Z,68.39
2018-07-21T07:11:51.939Z,68.78
2018-07-21T07:13:02.023Z,68.49
2018-07-21T07:14:12.096Z,68.68
2018-07-21T07:15:22.179Z,68.49
2018-07-21T07:16:32.415Z,68.72
2018-07-21T07:17:42.239Z,68.62
2018-07-21T07:18:52.321Z,68.39
2018-07-21T07:20:02.426Z,68.91
2018-07-21T07:21:12.520Z,69.11
2018-07-21T07:22:22.655Z,68.62
2018-07-21T07:23:32.755Z,68.62
2018-07-21T07:24:42.865Z,69.31
2018-07-21T07:25:52.949Z,68.82
2018-07-21T07:27:03.033Z,69.18
2018-07-21T07:28:13.168Z,68.78
2018-07-21T07:29:23.007Z,68.88
2018-07-21T07:30:33.110Z,69.21
2018-07-21T07:31:43.179Z,68.62
2018-07-21T07:32:53.276Z,68.52
2018-07-21T07:34:03.428Z,69.31
2018-07-21T07:35:13.573Z,68.33
2018-07-21T07:36:23.516Z,68.91
2018-07-21T07:37:33.339Z,69.21
2018-07-21T07:38:43.169Z,68.68
2018-07-21T07:39:52.772Z,69.4
2018-07-21T07:41:02.853Z,69.37
2018-07-21T07:42:13.048Z,68.91
2018-07-21T07:43:22.469Z,69.31
2018-07-21T07:44:32.569Z,68.91
2018-07-21T07:45:42.396Z,69.31
2018-07-21T07:46:52.241Z,69.4
2018-07-21T07:48:02.336Z,69.57
2018-07-21T07:49:12.423Z,69.4
2018-07-21T07:50:22.240Z,69.31
2018-07-21T07:51:32.054Z,69.01
2018-07-21T07:52:42.139Z,69.31
2018-07-21T07:53:51.967Z,69.21
2018-07-21T07:55:02.327Z,69.24
2018-07-21T07:56:12.408Z,68.85
2018-07-21T07:57:22.494Z,69.64
2018-07-21T07:58:32.561Z,69.11
2018-07-21T07:59:42.657Z,69.67
2018-07-21T08:00:52.739Z,69.79
2018-07-21T08:02:02.847Z,69.67
2018-07-21T08:03:12.936Z,69.86
2018-07-21T08:04:23.040Z,68.91
2018-07-21T08:05:33.129Z,69.31
2018-07-21T08:06:43.432Z,69.24
2018-07-21T08:07:53.506Z,68.85
2018-07-21T08:09:03.604Z,68.75
2018-07-21T08:10:13.688Z,68.55
2018-07-21T08:11:23.790Z,68.65
2018-07-21T08:12:33.887Z,68.85
2018-07-21T08:13:43.703Z,69.34
2018-07-21T08:14:53.779Z,68.75
2018-07-21T08:16:03.919Z,69.27
2018-07-21T08:17:13.473Z,69.27
2018-07-21T08:18:23.635Z,69.27
2018-07-21T08:19:33.531Z,68.88
2018-07-21T08:20:43.746Z,68.59
2018-07-21T08:21:53.825Z,68.33
2018-07-21T08:23:03.647Z,68.62
2018-07-21T08:24:13.743Z,68.72
2018-07-21T08:25:23.834Z,68.56
2018-07-21T08:26:33.962Z,69.05
2018-07-21T08:27:43.781Z,68.76
2018-07-21T08:28:53.628Z,69.05
2018-07-21T08:30:03.903Z,68.88
2018-07-21T08:31:14.015Z,68.73
2018-07-21T08:32:24.173Z,68.04
2018-07-21T08:33:34.281Z,68.01
2018-07-21T08:34:44.570Z,68.2
2018-07-21T08:35:54.522Z,68.4
2018-07-21T08:37:04.597Z,68.23
2018-07-21T08:38:14.735Z,67.84
2018-07-21T08:39:24.850Z,67.58
2018-07-21T08:40:34.429Z,67.58
2018-07-21T08:41:44.278Z,67.51
2018-07-21T08:42:54.099Z,67.32
2018-07-21T08:44:04.242Z,68.1
2018-07-21T08:45:14.352Z,68.3
2018-07-21T08:46:24.194Z,68.46
2018-07-21T08:47:34.307Z,68.07
2018-07-21T08:48:44.411Z,67.61
2018-07-21T08:49:54.850Z,67.25
2018-07-21T08:51:05.101Z,67.44
2018-07-21T08:52:14.936Z,67.29
2018-07-21T08:53:25.028Z,66.79
2018-07-21T08:54:35.116Z,66.72
2018-07-21T08:55:45.022Z,67.05
2018-07-21T08:56:55.561Z,67.35
2018-07-21T08:58:05.383Z,67.35
2018-07-21T08:59:15.480Z,67.25
2018-07-21T09:00:25.306Z,67.51
2018-07-21T09:01:35.410Z,67.22
2018-07-21T09:02:45.253Z,67.35
2018-07-21T09:03:55.120Z,67.55
2018-07-21T09:05:05.215Z,67.35
2018-07-21T09:06:15.280Z,67.84
2018-07-21T09:07:25.374Z,68.6
2018-07-21T09:08:35.493Z,68.66
2018-07-21T09:09:45.614Z,68.3
2018-07-21T09:10:55.456Z,68.66
2018-07-21T09:12:05.612Z,68.82
2018-07-21T09:13:15.825Z,68.63
2018-07-21T09:14:25.912Z,68.82
2018-07-21T09:15:35.476Z,68.73
2018-07-21T09:16:45.551Z,68.92
2018-07-21T09:17:55.651Z,68.89
2018-07-21T09:19:05.745Z,68.79
2018-07-21T09:20:15.832Z,68.66
2018-07-21T09:21:26.033Z,69.32
2018-07-21T09:22:36.369Z,69.28
2018-07-21T09:23:46.498Z,70.03
2018-07-21T09:24:56.338Z,70.13
2018-07-21T09:26:06.457Z,70.23
2018-07-21T09:27:16.552Z,70
2018-07-21T09:28:26.629Z,69.71
2018-07-21T09:29:36.720Z,69.64
2018-07-21T09:30:46.812Z,69.6
2018-07-21T09:31:56.894Z,70
2018-07-21T09:33:06.707Z,69.87
2018-07-21T09:34:16.740Z,70.13
2018-07-21T09:35:26.609Z,70.32
2018-07-21T09:36:36.434Z,70.91
2018-07-21T09:37:46.526Z,70.98
2018-07-21T09:38:56.610Z,70.84
2018-07-21T09:40:06.820Z,70.84
2018-07-21T09:41:17.153Z,69.76
2018-07-21T09:42:27.265Z,70.16
2018-07-21T09:43:37.335Z,70
2018-07-21T09:44:47.160Z,70.09
2018-07-21T09:45:56.738Z,69.9
2018-07-21T09:47:06.839Z,69.15
2018-07-21T09:48:16.920Z,69.24
2018-07-21T09:49:27.034Z,69.24
2018-07-21T09:50:36.863Z,69.24
2018-07-21T09:51:46.967Z,69.34
2018-07-21T09:52:56.820Z,69.73
2018-07-21T09:54:06.908Z,69.84
2018-07-21T09:55:16.845Z,69.24
2018-07-21T09:56:26.676Z,69.05
2018-07-21T09:57:36.570Z,69.54
2018-07-21T09:58:47.228Z,69.8
2018-07-21T09:59:57.467Z,69.8
2018-07-21T10:01:07.480Z,70.39
2018-07-21T10:02:17.568Z,70.26
2018-07-21T10:03:27.718Z,70.06
2018-07-21T10:04:37.809Z,69.73
2018-07-21T10:05:47.652Z,70.42
2018-07-21T10:06:57.745Z,70.12
2018-07-21T10:08:07.555Z,69.93
2018-07-21T10:09:17.663Z,69.93
2018-07-21T10:10:27.257Z,70.32
2018-07-21T10:11:37.394Z,70.22
2018-07-21T10:12:47.483Z,70.36
2018-07-21T10:13:57.634Z,70.16
2018-07-21T10:15:07.741Z,69.96
2018-07-21T10:16:17.854Z,69.76
2018-07-21T10:17:28.687Z,70.26
2018-07-21T10:18:40.646Z,69.7
2018-07-21T10:19:52.691Z,69.21
2018-07-21T10:21:04.252Z,69.51
2018-07-21T10:22:16.907Z,69.44
2018-07-21T10:23:29.768Z,68.95
2018-07-21T10:24:42.180Z,69.54
2018-07-21T10:25:53.747Z,68.79
2018-07-21T10:27:06.114Z,68.59
2018-07-21T10:28:20.320Z,68.79
2018-07-21T10:29:33.039Z,68.73
2018-07-21T10:30:45.885Z,68.82
2018-07-21T10:31:57.019Z,68.63
2018-07-21T10:33:07.965Z,68.92
2018-07-21T10:34:18.509Z,68.49
2018-07-21T10:35:28.586Z,68.69
2018-07-21T10:36:38.680Z,68.88
2018-07-21T10:37:48.524Z,69.18
2018-07-21T10:38:58.362Z,68.79
2018-07-21T10:40:08.557Z,68.69
2018-07-21T10:41:18.669Z,69.38
2018-07-21T10:42:28.771Z,69.48
2018-07-21T10:43:38.875Z,69.57
2018-07-21T10:44:48.706Z,69.48
2018-07-21T10:45:58.868Z,69.44
2018-07-21T10:47:08.677Z,69.24
2018-07-21T10:48:18.747Z,69.24
2018-07-21T10:49:28.835Z,69.24
2018-07-21T10:50:38.947Z,69.15
2018-07-21T10:51:49.220Z,69.44
2018-07-21T10:52:59.330Z,69.24
2018-07-21T10:54:09.166Z,69.44
2018-07-21T10:55:19.004Z,69.34
2018-07-21T10:56:29.095Z,69.54
2018-07-21T10:57:39.183Z,69.44
2018-07-21T10:58:49.286Z,69.09
2018-07-21T10:59:59.374Z,68.79
2018-07-21T11:01:09.477Z,69.18
2018-07-21T11:02:19.321Z,68.92
2018-07-21T11:03:29.413Z,68.63
2018-07-21T11:04:39.492Z,68.73
2018-07-21T11:05:49.585Z,68.63
2018-07-21T11:06:59.433Z,68.63
2018-07-21T11:08:09.366Z,68.63
2018-07-21T11:09:19.772Z,68.52
2018-07-21T11:10:29.860Z,69.12
2018-07-21T11:11:39.431Z,69.02
2018-07-21T11:12:49.537Z,68.92
2018-07-21T11:13:59.618Z,68.73
2018-07-21T11:15:09.465Z,68.82
2018-07-21T11:16:19.344Z,69.12
2018-07-21T11:17:29.433Z,68.92
2018-07-21T11:18:39.523Z,68.46
2018-07-21T11:19:49.597Z,68.01
2018-07-21T11:20:59.462Z,68.53
2018-07-21T11:22:09.623Z,67.74
2018-07-21T11:23:19.458Z,67.68
2018-07-21T11:24:29.532Z,66.93
2018-07-21T11:25:39.658Z,67.02
2018-07-21T11:26:49.769Z,67.32
2018-07-21T11:27:59.861Z,67.55
2018-07-21T11:29:09.942Z,66.96
2018-07-21T11:30:20.049Z,66.6
2018-07-21T11:31:30.137Z,66.79
2018-07-21T11:32:39.947Z,66.82
2018-07-21T11:33:50.050Z,66.82
2018-07-21T11:35:00.157Z,67.02
2018-07-21T11:36:10.924Z,67.12
2018-07-21T11:37:21.591Z,67.51
2018-07-21T11:38:31.721Z,67.29
2018-07-21T11:39:41.851Z,67.51
2018-07-21T11:40:51.947Z,67.12
2018-07-21T11:42:02.043Z,67.48
2018-07-21T11:43:11.882Z,67.29
2018-07-21T11:44:22.023Z,67.68
2018-07-21T11:45:32.283Z,67.38
2018-07-21T11:46:42.386Z,67.41
2018-07-21T11:47:52.487Z,67.68
2018-07-21T11:49:02.574Z,67.51
2018-07-21T11:50:12.725Z,67.12
2018-07-21T11:51:22.825Z,67.15
2018-07-21T11:52:32.895Z,67.32
2018-07-21T11:53:42.730Z,67.44
2018-07-21T11:54:52.811Z,67.55
2018-07-21T11:56:02.885Z,67.55
2018-07-21T11:57:12.487Z,67.44
2018-07-21T11:58:22.569Z,66.79
2018-07-21T11:59:32.409Z,66.42
2018-07-21T12:00:42.503Z,66.36
2018-07-21T12:01:52.741Z,66.19
2018-07-21T12:03:03.032Z,66
2018-07-21T12:04:13.168Z,66.09
2018-07-21T12:05:23.371Z,65.93
2018-07-21T12:06:33.718Z,66.03
2018-07-21T12:07:43.861Z,66.46
2018-07-21T12:08:53.952Z,66.52
2018-07-21T12:10:03.806Z,66.62
2018-07-21T12:11:13.906Z,67.32
2018-07-21T12:12:23.999Z,66.99
2018-07-21T12:13:34.345Z,67.35
2018-07-21T12:14:44.907Z,67.71
2018-07-21T12:15:55.027Z,68.66
2018-07-21T12:17:05.128Z,68.73
2018-07-21T12:18:15.235Z,68.37
2018-07-21T12:19:25.328Z,68.37
2018-07-21T12:20:35.416Z,68.37
2018-07-21T12:21:45.331Z,68.57
2018-07-21T12:22:55.421Z,68.46
2018-07-21T12:24:05.694Z,68.63
2018-07-21T12:25:15.806Z,69.12
2018-07-21T12:26:25.956Z,68.53
2018-07-21T12:27:36.364Z,68.93
2018-07-21T12:28:46.714Z,69.38
2018-07-21T12:29:56.824Z,68.86
2018-07-21T12:31:06.922Z,68.96
2018-07-21T12:32:17.030Z,69.15
2018-07-21T12:33:26.621Z,68.56
2018-07-21T12:34:36.829Z,68.2
2018-07-21T12:35:46.935Z,68.5
2018-07-21T12:36:57.090Z,68.7
2018-07-21T12:38:07.187Z,68.7
2018-07-21T12:39:17.257Z,69.09
2018-07-21T12:40:27.105Z,69.06
2018-07-21T12:41:36.942Z,68.96
2018-07-21T12:42:47.055Z,68.96
2018-07-21T12:43:57.156Z,69.02
2018-07-21T12:45:07.239Z,69.02
2018-07-21T12:46:17.340Z,69.15
2018-07-21T12:47:27.445Z,69.06
2018-07-21T12:48:37.360Z,69.25
2018-07-21T12:49:47.457Z,69.29
2018-07-21T12:50:57.314Z,69.09
2018-07-21T12:52:07.155Z,69.15
2018-07-21T12:53:17.259Z,69.22
2018-07-21T12:54:27.402Z,69.12
2018-07-21T12:55:37.510Z,69.12
2018-07-21T12:56:47.605Z,69.51
2018-07-21T12:57:57.440Z,70.14
2018-07-21T12:59:07.750Z,70
2018-07-21T13:00:18.001Z,69.42
2018-07-21T13:01:28.109Z,69.54
2018-07-21T13:02:38.187Z,69.18
2018-07-21T13:03:48.302Z,68.79
2018-07-21T13:04:58.395Z,68.92
2018-07-21T13:06:08.548Z,68.82
2018-07-21T13:07:18.651Z,69.02
2018-07-21T13:08:28.745Z,69.22
2018-07-21T13:09:38.628Z,69.32
2018-07-21T13:10:48.727Z,69.12
2018-07-21T13:11:58.817Z,69.02
2018-07-21T13:13:08.677Z,69.35
2018-07-21T13:14:18.520Z,68.92
2018-07-21T13:15:28.387Z,69.91
2018-07-21T13:16:38.492Z,69.64
2018-07-21T13:17:48.595Z,69.18
2018-07-21T13:18:58.695Z,69.22
2018-07-21T13:20:08.249Z,69.22
2018-07-21T13:21:18.371Z,69.02
2018-07-21T13:22:28.479Z,68.86
2018-07-21T13:23:38.569Z,69.06
2018-07-21T13:24:48.128Z,68.86
2018-07-21T13:25:58.226Z,68.86
2018-07-21T13:27:08.340Z,68.86
2018-07-21T13:28:18.448Z,68.96
2018-07-21T13:29:28.541Z,68.89
2018-07-21T13:30:38.365Z,69.19
2018-07-21T13:31:48.575Z,69.29
2018-07-21T13:32:58.646Z,68.7
2018-07-21T13:34:08.758Z,68.7
2018-07-21T13:35:18.636Z,68.24
2018-07-21T13:36:28.748Z,68.73
2018-07-21T13:37:38.856Z,68.53
2018-07-21T13:38:48.967Z,68.53
2018-07-21T13:39:59.112Z,69.12
2018-07-21T13:41:09.214Z,69.52
2018-07-21T13:42:19.316Z,68.89
2018-07-21T13:43:29.411Z,69.19
2018-07-21T13:44:39.520Z,69.68
2018-07-21T13:45:49.361Z,69.74
2018-07-21T13:46:59.464Z,69.71
2018-07-21T13:48:09.291Z,69.51
2018-07-21T13:49:19.130Z,69.71
2018-07-21T13:50:28.962Z,69.81
2018-07-21T13:51:38.798Z,68.82
2018-07-21T13:52:48.913Z,68.96
2018-07-21T13:53:58.874Z,69.06
2018-07-21T13:55:09.352Z,69.25
2018-07-21T13:56:18.929Z,69.35
2018-07-21T13:57:29.033Z,68.89
2018-07-21T13:58:39.118Z,69.29
2018-07-21T13:59:48.955Z,69.02
2018-07-21T14:00:59.036Z,68.63
2018-07-21T14:02:08.612Z,68.63
2018-07-21T14:03:18.741Z,68.57
2018-07-21T14:04:28.857Z,68.57
2018-07-21T14:05:38.939Z,68.66
2018-07-21T14:06:49.019Z,68.66
2018-07-21T14:07:58.842Z,68.86
2018-07-21T14:09:08.993Z,68.66
2018-07-21T14:10:19.173Z,68.66
2018-07-21T14:11:29.272Z,68.96
2018-07-21T14:12:39.377Z,69.32
2018-07-21T14:13:49.476Z,69.29
2018-07-21T14:14:59.580Z,69.68
2018-07-21T14:16:09.681Z,69.84
2018-07-21T14:17:19.778Z,68.96
2018-07-21T14:18:29.604Z,69.42
2018-07-21T14:19:39.705Z,69.02
2018-07-21T14:20:49.835Z,69.12
2018-07-21T14:22:00.269Z,69.22
2018-07-21T14:23:10.363Z,69.42
2018-07-21T14:24:20.209Z,69.71
2018-07-21T14:25:30.309Z,69.55
2018-07-21T14:26:40.402Z,70.34
2018-07-21T14:27:50.237Z,70.2
2018-07-21T14:29:00.105Z,70.37
2018-07-21T14:30:09.928Z,70.56
2018-07-21T14:31:20.081Z,70.43
2018-07-21T14:32:30.185Z,70.73
2018-07-21T14:33:40.293Z,71.09
2018-07-21T14:34:50.675Z,70.89
2018-07-21T14:36:00.975Z,70.86
2018-07-21T14:37:11.222Z,70.95
2018-07-21T14:38:21.055Z,71.31
2018-07-21T14:39:30.628Z,71.51
2018-07-21T14:40:40.731Z,71.41
2018-07-21T14:41:50.931Z,71.47
2018-07-21T14:43:01.202Z,72.06
2018-07-21T14:44:11.319Z,71.83
2018-07-21T14:45:21.408Z,71.53
2018-07-21T14:46:31.903Z,71.93
2018-07-21T14:47:42.003Z,71.93
2018-07-21T14:48:52.391Z,71.93
2018-07-21T14:50:02.569Z,71.73
2018-07-21T14:51:12.677Z,71.73
2018-07-21T14:52:22.793Z,71.44
2018-07-21T14:53:32.886Z,71.64
2018-07-21T14:54:43.119Z,71.53
2018-07-21T14:55:53.580Z,71.5
2018-07-21T14:57:04.653Z,71.41
2018-07-21T14:58:14.782Z,71.8
2018-07-21T14:59:24.626Z,71.89
2018-07-21T15:00:34.742Z,71.56
2018-07-21T15:01:44.456Z,71.86
2018-07-21T15:02:54.815Z,71.95
2018-07-21T15:04:04.918Z,72.55
2018-07-21T15:05:15.023Z,72.02
2018-07-21T15:06:24.861Z,72.71
2018-07-21T15:07:35.020Z,72.38
2018-07-21T15:08:45.144Z,72.77
2018-07-21T15:09:55.232Z,73.03
2018-07-21T15:11:05.341Z,73.28
2018-07-21T15:12:15.214Z,73.05
2018-07-21T15:13:25.800Z,73.64
2018-07-21T15:14:35.881Z,73.5
2018-07-21T15:15:45.975Z,74.12
2018-07-21T15:16:56.085Z,73.83
2018-07-21T15:18:06.195Z,73.79
2018-07-21T15:19:16.268Z,73.99
2018-07-21T15:20:26.187Z,74.34
2018-07-21T15:21:36.046Z,73.91
2018-07-21T15:22:46.134Z,73.78
2018-07-21T15:23:56.065Z,73.29
2018-07-21T15:25:06.122Z,73.58
2018-07-21T15:26:15.975Z,73.55
2018-07-21T15:27:26.057Z,73.16
2018-07-21T15:28:36.148Z,72.86
2018-07-21T15:29:46.269Z,72.44
2018-07-21T15:30:56.428Z,72.54
2018-07-21T15:32:06.529Z,72.73
2018-07-21T15:33:15.836Z,72.73
2018-07-21T15:34:25.923Z,72.7
2018-07-21T15:35:35.745Z,72.76
2018-07-21T15:36:45.876Z,73.34